Time;durP1;ratioP1;P1;durP2;ratioP2;P2;SDS_P1;SDS_P2;PMS_P1;PMS_P2;Temp;Humidity;BMP_temperature;BMP_pressure;BME280_temperature;BME280_humidity;BME280_pressure;Samples;Min_cycle;Max_cycle;Signal;HPM_P1;HPM_P2
2024/02/19 00:01:41;;;;;;;1.20;1.00;;;19.00;59.20;;;;;;5015680;28;20033;-51
2024/02/19 00:04:06;;;;;;;0.80;0.80;;;19.00;59.20;;;;;;5020933;28;20125;-47
2024/02/19 00:06:34;;;;;;;1.17;1.08;;;19.00;59.20;;;;;;5010253;28;20121;-47
2024/02/19 00:09:00;;;;;;;1.17;1.05;;;19.00;59.80;;;;;;5023826;28;20041;-48
2024/02/19 00:11:26;;;;;;;1.17;1.08;;;19.00;59.20;;;;;;5011827;28;20030;-48
2024/02/19 00:13:51;;;;;;;1.20;1.10;;;19.00;59.20;;;;;;5017693;28;20064;-49
2024/02/19 00:16:16;;;;;;;3.10;0.98;;;19.00;59.20;;;;;;5011382;28;20554;-48
2024/02/19 00:18:42;;;;;;;0.88;0.73;;;19.00;59.20;;;;;;5021399;28;20483;-47
2024/02/19 00:21:07;;;;;;;1.27;0.98;;;19.00;59.20;;;;;;5010696;28;20097;-49
2024/02/19 00:23:35;;;;;;;0.90;0.85;;;19.00;59.20;;;;;;5022806;28;20037;-47
2024/02/19 00:26:01;;;;;;;0.95;0.85;;;19.00;59.20;;;;;;5014060;28;20043;-47
2024/02/19 00:28:26;;;;;;;1.95;1.00;;;18.90;59.10;;;;;;5018167;28;20029;-48
2024/02/19 00:30:53;;;;;;;1.25;1.00;;;19.00;59.20;;;;;;5018207;28;20513;-49
2024/02/19 00:33:19;;;;;;;0.95;0.90;;;19.00;59.20;;;;;;5014783;28;20087;-47
2024/02/19 00:35:45;;;;;;;1.33;0.82;;;19.00;59.20;;;;;;5015745;28;20034;-48
2024/02/19 00:38:11;;;;;;;1.13;0.88;;;18.90;59.10;;;;;;5020825;28;20023;-47
2024/02/19 00:40:37;;;;;;;0.95;0.90;;;19.00;59.20;;;;;;5010606;28;20046;-47
2024/02/19 00:43:03;;;;;;;0.95;0.88;;;19.00;59.20;;;;;;5018107;28;20037;-47
2024/02/19 00:45:28;;;;;;;0.95;0.88;;;19.00;59.20;;;;;;5006555;28;20042;-49
2024/02/19 00:47:54;;;;;;;1.48;0.98;;;19.00;59.20;;;;;;5020330;28;20029;-47
2024/02/19 00:50:19;;;;;;;0.98;0.90;;;19.00;59.20;;;;;;5012409;28;20026;-47
2024/02/19 00:52:45;;;;;;;1.13;1.00;;;19.00;59.20;;;;;;5018179;28;20028;-47
2024/02/19 00:55:10;;;;;;;0.80;0.70;;;19.00;59.20;;;;;;5009519;28;20605;-52
2024/02/19 00:57:37;;;;;;;1.20;1.10;;;19.00;59.20;;;;;;5021061;28;20037;-48
2024/02/19 01:00:03;;;;;;;1.00;0.90;;;18.90;59.10;;;;;;5008441;28;20049;-47
2024/02/19 01:02:29;;;;;;;0.95;0.77;;;19.00;59.20;;;;;;5014579;28;20037;-49
2024/02/19 01:04:56;;;;;;;1.00;0.80;;;19.00;59.20;;;;;;5012347;28;20094;-47
2024/02/19 01:07:22;;;;;;;0.60;0.60;;;19.00;59.20;;;;;;5016235;28;20100;-50
2024/02/19 01:09:48;;;;;;;0.75;0.73;;;19.00;59.20;;;;;;5011977;28;20135;-46
2024/02/19 01:12:14;;;;;;;1.00;0.90;;;19.00;59.20;;;;;;5012346;28;20121;-56
2024/02/19 01:14:40;;;;;;;0.80;0.80;;;19.00;59.20;;;;;;5008298;28;20037;-48
2024/02/19 01:17:06;;;;;;;0.75;0.75;;;19.00;59.20;;;;;;5016345;28;20041;-46
2024/02/19 01:19:32;;;;;;;0.85;0.85;;;18.90;59.10;;;;;;5008616;28;20026;-47
2024/02/19 01:21:58;;;;;;;1.10;1.00;;;18.90;59.10;;;;;;5019819;28;20029;-50
2024/02/19 01:24:24;;;;;;;0.60;0.60;;;18.90;59.20;;;;;;5008729;28;20475;-48
2024/02/19 01:26:51;;;;;;;0.45;0.40;;;18.90;59.20;;;;;;5020919;28;20028;-49
2024/02/19 01:29:17;;;;;;;1.17;0.80;;;18.90;59.30;;;;;;5015298;28;20414;-49
2024/02/19 01:31:42;;;;;;;0.90;0.73;;;18.80;59.90;;;;;;5016795;28;20034;-53
2024/02/19 01:34:08;;;;;;;0.95;0.73;;;18.80;59.30;;;;;;5004744;23;20029;-51
2024/02/19 01:36:33;;;;;;;0.80;0.65;;;18.80;60.20;;;;;;5013424;28;20504;-48
2024/02/19 01:38:59;;;;;;;0.70;0.70;;;18.80;60.10;;;;;;5008291;28;20625;-47
2024/02/19 01:41:25;;;;;;;0.80;0.80;;;18.80;59.60;;;;;;5012073;28;20060;-53
2024/02/19 01:43:50;;;;;;;0.68;0.68;;;18.80;59.60;;;;;;5006286;28;20494;-48
2024/02/19 01:46:17;;;;;;;0.70;0.70;;;18.70;59.60;;;;;;5012431;28;20038;-50
2024/02/19 01:48:44;;;;;;;0.70;0.70;;;18.70;59.60;;;;;;5003773;28;22142;-49
2024/02/19 01:51:10;;;;;;;0.88;0.77;;;18.70;59.60;;;;;;5011023;28;20033;-48
2024/02/19 01:53:36;;;;;;;0.60;0.60;;;18.70;59.60;;;;;;5001647;28;20095;-50
2024/02/19 01:56:01;;;;;;;0.77;0.65;;;18.70;59.60;;;;;;5012326;28;20034;-50
2024/02/19 01:58:29;;;;;;;0.40;0.40;;;18.70;59.60;;;;;;5009438;28;20033;-49
2024/02/19 02:00:58;;;;;;;0.73;0.60;;;18.70;59.50;;;;;;5016867;28;20050;-48
2024/02/19 02:03:26;;;;;;;0.65;0.60;;;18.70;59.50;;;;;;5003867;28;20090;-48
2024/02/19 02:05:52;;;;;;;0.57;0.57;;;18.80;59.50;;;;;;5016702;28;20482;-47
2024/02/19 02:08:18;;;;;;;0.73;0.73;;;18.80;59.40;;;;;;5011895;28;20030;-47
2024/02/19 02:10:44;;;;;;;0.52;0.52;;;18.80;59.40;;;;;;5015596;28;20030;-49
2024/02/19 02:13:09;;;;;;;1.42;0.60;;;18.80;59.30;;;;;;5011077;28;20037;-49
2024/02/19 02:15:35;;;;;;;0.75;0.70;;;18.80;59.20;;;;;;5016232;28;20034;-49
2024/02/19 02:18:00;;;;;;;0.55;0.55;;;18.90;59.10;;;;;;5012638;28;20044;-49
2024/02/19 02:20:26;;;;;;;0.60;0.57;;;18.90;59.10;;;;;;5019145;28;20384;-48
2024/02/19 02:22:52;;;;;;;0.80;0.60;;;18.90;59.10;;;;;;5010303;28;20025;-48
2024/02/19 02:25:18;;;;;;;0.60;0.60;;;19.00;59.10;;;;;;5018957;28;20030;-47
2024/02/19 02:27:43;;;;;;;0.73;0.60;;;19.00;59.00;;;;;;5010446;28;20113;-49
2024/02/19 02:30:09;;;;;;;0.55;0.55;;;19.00;58.90;;;;;;5018747;28;20026;-47
2024/02/19 02:32:34;;;;;;;0.93;0.70;;;19.00;58.80;;;;;;5010273;28;20769;-47
2024/02/19 02:35:01;;;;;;;0.43;0.43;;;19.10;58.70;;;;;;5018197;28;20046;-52
2024/02/19 02:37:27;;;;;;;0.47;0.47;;;19.10;58.70;;;;;;5016975;28;20033;-51
2024/02/19 02:39:53;;;;;;;0.43;0.43;;;19.20;58.70;;;;;;5015197;28;20036;-46
2024/02/19 02:42:19;;;;;;;1.38;0.60;;;19.20;58.60;;;;;;5020292;28;20236;-48
2024/02/19 02:44:44;;;;;;;1.23;0.60;;;19.20;58.50;;;;;;5015188;28;20735;-48
2024/02/19 02:47:10;;;;;;;0.50;0.50;;;19.20;58.50;;;;;;5016786;28;20025;-48
2024/02/19 02:49:35;;;;;;;0.63;0.63;;;19.20;58.50;;;;;;5014661;28;20411;-48
2024/02/19 02:52:01;;;;;;;0.60;0.60;;;19.20;58.50;;;;;;5013442;28;20033;-47
2024/02/19 02:54:26;;;;;;;0.40;0.40;;;19.20;58.50;;;;;;5016214;28;20163;-47
2024/02/19 02:56:52;;;;;;;0.40;0.40;;;19.30;58.50;;;;;;5011265;28;20042;-48
2024/02/19 02:59:17;;;;;;;0.80;0.68;;;19.30;58.40;;;;;;5011508;28;20037;-48
2024/02/19 03:01:43;;;;;;;0.88;0.70;;;19.30;58.30;;;;;;5017170;28;20033;-47
2024/02/19 03:04:08;;;;;;;0.68;0.52;;;19.40;58.40;;;;;;5017444;28;20040;-45
2024/02/19 03:06:34;;;;;;;0.50;0.50;;;19.40;58.30;;;;;;5013882;28;20562;-47
2024/02/19 03:08:59;;;;;;;0.45;0.40;;;19.40;58.20;;;;;;5013081;28;20133;-47
2024/02/19 03:11:26;;;;;;;0.47;0.47;;;19.30;58.20;;;;;;5009066;28;20034;-47
2024/02/19 03:13:52;;;;;;;0.65;0.45;;;19.30;58.20;;;;;;5008293;28;20126;-47
2024/02/19 03:16:17;;;;;;;0.47;0.40;;;19.30;58.30;;;;;;5012470;28;20037;-48
2024/02/19 03:18:43;;;;;;;0.40;0.40;;;19.30;58.30;;;;;;5008839;28;20041;-48
2024/02/19 03:21:11;;;;;;;0.50;0.50;;;19.30;58.40;;;;;;5011108;28;20029;-49
2024/02/19 03:23:36;;;;;;;0.60;0.50;;;19.30;58.50;;;;;;5009459;28;20054;-49
2024/02/19 03:26:04;;;;;;;0.55;0.50;;;19.30;58.40;;;;;;5009210;28;20056;-47
2024/02/19 03:28:30;;;;;;;1.20;0.50;;;19.30;58.50;;;;;;5018908;28;20096;-48
2024/02/19 03:30:55;;;;;;;0.68;0.60;;;19.20;58.50;;;;;;5011378;28;20037;-46
2024/02/19 03:33:20;;;;;;;0.45;0.40;;;19.30;58.50;;;;;;5012643;28;20044;-47
2024/02/19 03:35:46;;;;;;;0.95;0.30;;;19.20;58.50;;;;;;5010169;28;20065;-46
2024/02/19 03:38:12;;;;;;;0.40;0.40;;;19.20;58.60;;;;;;5016223;28;20034;-47
2024/02/19 03:40:37;;;;;;;0.60;0.30;;;19.20;58.60;;;;;;5009695;28;20088;-47
2024/02/19 03:43:03;;;;;;;0.30;0.30;;;19.20;58.70;;;;;;5012909;28;20026;-48
2024/02/19 03:45:29;;;;;;;0.30;0.30;;;19.20;58.70;;;;;;5009675;28;20026;-49
2024/02/19 03:47:54;;;;;;;0.40;0.40;;;19.20;58.80;;;;;;5012692;28;20087;-48
2024/02/19 03:50:23;;;;;;;0.30;0.30;;;19.10;58.80;;;;;;5013287;28;20045;-46
2024/02/19 03:52:48;;;;;;;0.45;0.30;;;19.10;58.80;;;;;;5014282;28;20502;-46
2024/02/19 03:55:14;;;;;;;0.43;0.32;;;19.10;58.80;;;;;;5013451;28;20030;-46
2024/02/19 03:57:39;;;;;;;0.47;0.45;;;19.10;58.90;;;;;;5011996;28;20041;-49
2024/02/19 04:00:07;;;;;;;0.68;0.43;;;19.10;58.90;;;;;;5011683;28;20029;-48
2024/02/19 04:02:32;;;;;;;0.30;0.30;;;19.10;58.90;;;;;;5008569;28;20033;-47
2024/02/19 04:04:58;;;;;;;1.17;0.40;;;19.10;58.90;;;;;;5011213;28;20372;-53
2024/02/19 04:07:24;;;;;;;0.30;0.30;;;19.00;58.90;;;;;;5009313;28;20570;-48
2024/02/19 04:09:49;;;;;;;0.60;0.40;;;19.00;58.90;;;;;;5007612;28;20037;-53
2024/02/19 04:12:15;;;;;;;0.40;0.30;;;19.00;59.00;;;;;;5007318;28;20034;-54
2024/02/19 04:14:41;;;;;;;0.75;0.50;;;19.00;59.00;;;;;;5005327;28;20029;-53
2024/02/19 04:17:06;;;;;;;0.47;0.47;;;19.00;59.00;;;;;;5014214;28;20026;-52
2024/02/19 04:19:32;;;;;;;0.47;0.47;;;19.00;59.00;;;;;;5006821;28;20690;-50
2024/02/19 04:21:57;;;;;;;0.63;0.22;;;19.00;59.00;;;;;;5010830;28;20499;-49
2024/02/19 04:24:23;;;;;;;0.45;0.30;;;19.00;59.00;;;;;;5007811;28;20030;-48
2024/02/19 04:26:48;;;;;;;0.30;0.28;;;19.00;59.00;;;;;;5009811;28;20033;-48
2024/02/19 04:29:14;;;;;;;0.60;0.50;;;19.00;59.00;;;;;;5011383;28;20029;-50
2024/02/19 04:31:43;;;;;;;0.30;0.30;;;19.00;59.00;;;;;;5016884;28;20030;-49
2024/02/19 04:34:08;;;;;;;0.32;0.32;;;19.00;59.00;;;;;;5016227;28;20034;-47
2024/02/19 04:36:34;;;;;;;0.20;0.20;;;19.00;59.00;;;;;;5016305;28;20092;-48
2024/02/19 04:39:00;;;;;;;1.10;0.60;;;19.00;59.00;;;;;;5014356;28;20146;-46
2024/02/19 04:41:25;;;;;;;0.40;0.30;;;19.00;59.00;;;;;;5011886;28;20082;-46
2024/02/19 04:43:51;;;;;;;0.30;0.30;;;19.00;59.00;;;;;;5012901;28;20424;-50
2024/02/19 04:46:16;;;;;;;0.20;0.20;;;19.00;59.00;;;;;;5013863;28;20041;-50
2024/02/19 04:48:42;;;;;;;0.22;0.22;;;19.00;59.00;;;;;;5008923;28;20037;-49
2024/02/19 04:51:07;;;;;;;0.32;0.30;;;19.00;59.00;;;;;;5013893;28;20060;-46
2024/02/19 04:53:33;;;;;;;0.22;0.22;;;19.00;59.00;;;;;;5006216;28;20037;-51
2024/02/19 04:55:58;;;;;;;0.20;0.20;;;19.00;59.00;;;;;;5011207;28;20045;-55
2024/02/19 04:58:24;;;;;;;0.30;0.20;;;19.00;59.00;;;;;;5006865;28;20045;-48
2024/02/19 05:00:50;;;;;;;0.20;0.20;;;19.00;58.90;;;;;;5011730;28;20510;-49
2024/02/19 05:03:15;;;;;;;0.40;0.40;;;19.00;58.90;;;;;;5011034;28;20071;-47
2024/02/19 05:05:41;;;;;;;0.30;0.30;;;19.00;58.90;;;;;;5011048;28;20105;-50
2024/02/19 05:08:07;;;;;;;0.40;0.38;;;19.00;58.90;;;;;;5008409;28;20032;-47
2024/02/19 05:10:32;;;;;;;0.30;0.30;;;19.00;58.90;;;;;;5013420;28;20510;-47
2024/02/19 05:12:58;;;;;;;0.43;0.28;;;19.00;58.90;;;;;;5009628;28;20030;-47
2024/02/19 05:15:24;;;;;;;0.30;0.30;;;19.00;58.90;;;;;;5002504;28;20044;-50
2024/02/19 05:17:50;;;;;;;0.28;0.28;;;19.00;58.90;;;;;;5006488;28;20041;-47
2024/02/19 05:20:16;;;;;;;1.00;0.47;;;19.00;58.80;;;;;;5013766;28;20033;-50
2024/02/19 05:22:42;;;;;;;0.20;0.20;;;19.00;58.80;;;;;;5005505;28;20495;-58
2024/02/19 05:25:07;;;;;;;0.32;0.20;;;19.10;58.90;;;;;;5017603;28;20091;-48
2024/02/19 05:27:33;;;;;;;0.20;0.20;;;19.10;58.80;;;;;;5008120;28;20030;-52
2024/02/19 05:29:59;;;;;;;0.80;0.40;;;19.10;58.80;;;;;;5011045;28;20058;-46
2024/02/19 05:32:24;;;;;;;0.50;0.40;;;19.00;58.70;;;;;;5008544;28;20037;-46
2024/02/19 05:34:50;;;;;;;0.30;0.30;;;19.10;58.80;;;;;;5013514;28;20505;-50
2024/02/19 05:37:16;;;;;;;0.63;0.30;;;19.00;58.70;;;;;;5008200;28;20057;-49
2024/02/19 05:39:42;;;;;;;0.20;0.20;;;19.10;58.80;;;;;;5010769;28;20037;-47
2024/02/19 05:42:08;;;;;;;0.20;0.10;;;19.10;58.80;;;;;;5009318;28;20057;-47
2024/02/19 05:44:34;;;;;;;0.30;0.25;;;19.00;58.70;;;;;;5008798;28;20120;-51
2024/02/19 05:47:00;;;;;;;0.20;0.20;;;19.10;58.70;;;;;;5007127;28;20487;-49
2024/02/19 05:49:25;;;;;;;0.20;0.20;;;19.10;58.70;;;;;;5016903;28;20075;-50
2024/02/19 05:51:52;;;;;;;0.43;0.20;;;19.10;58.70;;;;;;5006321;28;20030;-48
2024/02/19 05:54:17;;;;;;;1.27;0.10;;;19.10;58.70;;;;;;5012849;28;20057;-48
2024/02/19 05:56:43;;;;;;;0.30;0.30;;;19.10;58.70;;;;;;5005353;28;20484;-45
2024/02/19 05:59:08;;;;;;;0.30;0.20;;;19.10;58.70;;;;;;5013770;28;20022;-46
2024/02/19 06:01:34;;;;;;;0.43;0.20;;;19.10;58.70;;;;;;5006017;28;20038;-46
2024/02/19 06:03:59;;;;;;;0.20;0.15;;;19.10;58.70;;;;;;5010800;28;20429;-54
2024/02/19 06:06:25;;;;;;;0.17;0.17;;;19.10;58.70;;;;;;5007469;28;20038;-47
2024/02/19 06:08:50;;;;;;;0.40;0.30;;;19.10;59.10;;;;;;5011310;28;20049;-52
2024/02/19 06:11:16;;;;;;;0.20;0.20;;;19.10;58.70;;;;;;5006056;28;20129;-48
2024/02/19 06:13:41;;;;;;;0.40;0.20;;;19.10;58.70;;;;;;5005783;28;20096;-53
2024/02/19 06:16:07;;;;;;;0.45;0.30;;;19.10;58.70;;;;;;5006371;28;20181;-47
2024/02/19 06:18:33;;;;;;;0.38;0.20;;;19.10;58.70;;;;;;5007838;28;20387;-46
2024/02/19 06:20:59;;;;;;;0.40;0.38;;;19.00;58.70;;;;;;5005739;28;20083;-50
2024/02/19 06:23:24;;;;;;;0.13;0.10;;;19.10;58.70;;;;;;5007742;28;20030;-48
2024/02/19 06:25:50;;;;;;;0.28;0.20;;;19.10;58.70;;;;;;5004033;28;20048;-46
2024/02/19 06:28:15;;;;;;;0.45;0.20;;;19.00;58.70;;;;;;5011216;28;20120;-51
2024/02/19 06:30:41;;;;;;;0.10;0.10;;;19.10;58.80;;;;;;5004795;28;20130;-48
2024/02/19 06:33:06;;;;;;;0.10;0.10;;;19.00;58.70;;;;;;5006732;28;20533;-46
2024/02/19 06:35:32;;;;;;;0.17;0.17;;;19.00;58.80;;;;;;5006805;28;20208;-46
2024/02/19 06:37:57;;;;;;;1.15;0.20;;;19.00;58.80;;;;;;5004977;28;20576;-46
2024/02/19 06:40:23;;;;;;;1.08;0.10;;;19.00;58.90;;;;;;5009136;28;20034;-50
2024/02/19 06:42:48;;;;;;;0.20;0.20;;;19.00;58.80;;;;;;5004455;28;20141;-49
2024/02/19 06:45:14;;;;;;;2.40;0.68;;;19.00;58.80;;;;;;5010636;28;20041;-46
2024/02/19 06:47:40;;;;;;;2.80;1.40;;;19.10;58.90;;;;;;5012721;28;20434;-47
2024/02/19 06:50:07;;;;;;;3.30;1.10;;;19.00;58.80;;;;;;5010008;28;20254;-46
2024/02/19 06:52:32;;;;;;;3.53;1.38;;;19.10;58.90;;;;;;5010344;28;20038;-46
2024/02/19 06:54:58;;;;;;;2.42;1.30;;;19.10;58.90;;;;;;5010518;28;20108;-46
2024/02/19 06:57:23;;;;;;;2.83;1.30;;;19.00;58.80;;;;;;5009559;28;20052;-47
2024/02/19 06:59:49;;;;;;;3.20;1.17;;;19.00;58.80;;;;;;5004387;28;20038;-51
2024/02/19 07:02:14;;;;;;;2.15;1.20;;;19.00;58.90;;;;;;5011243;28;20580;-46
2024/02/19 07:04:40;;;;;;;3.33;1.10;;;19.00;58.80;;;;;;5003301;28;20065;-47
2024/02/19 07:07:09;;;;;;;3.55;1.52;;;19.00;58.90;;;;;;5011241;28;20064;-48
2024/02/19 07:09:35;;;;;;;4.57;1.30;;;19.00;58.90;;;;;;5011735;28;20033;-46
2024/02/19 07:12:01;;;;;;;1.75;1.27;;;19.10;58.90;;;;;;5012861;28;20042;-50
2024/02/19 07:14:26;;;;;;;3.95;1.50;;;19.00;58.80;;;;;;5012567;28;20588;-48
2024/02/19 07:16:52;;;;;;;4.35;1.33;;;19.00;58.80;;;;;;5011557;28;20029;-49
2024/02/19 07:19:17;;;;;;;5.07;1.70;;;19.00;58.80;;;;;;5012823;28;20045;-52
2024/02/19 07:21:43;;;;;;;5.25;1.33;;;19.00;58.80;;;;;;5012368;28;20065;-52
2024/02/19 07:24:08;;;;;;;3.15;1.33;;;19.00;58.80;;;;;;5012495;28;20109;-47
2024/02/19 07:26:34;;;;;;;2.95;1.50;;;19.00;58.80;;;;;;5011419;28;20080;-48
2024/02/19 07:28:59;;;;;;;2.22;1.38;;;19.00;58.80;;;;;;5003527;28;20794;-49
2024/02/19 07:31:25;;;;;;;2.60;1.38;;;19.10;58.80;;;;;;5012495;28;20029;-46
2024/02/19 07:33:50;;;;;;;3.90;1.30;;;19.00;58.80;;;;;;5007336;28;20134;-46
2024/02/19 07:36:16;;;;;;;2.42;1.40;;;19.00;58.80;;;;;;5014971;28;20067;-49
2024/02/19 07:38:41;;;;;;;2.20;1.48;;;19.10;59.40;;;;;;5015724;28;20441;-52
2024/02/19 07:41:17;;;;;;;4.00;1.30;;;19.00;58.80;;;;;;5015629;28;20034;-46
2024/02/19 07:43:44;;;;;;;3.38;1.40;;;19.00;58.70;;;;;;5010873;28;20116;-46
2024/02/19 07:46:10;;;;;;;2.83;1.27;;;19.00;58.80;;;;;;5018817;28;20061;-47
2024/02/19 07:48:35;;;;;;;3.38;1.35;;;19.00;58.80;;;;;;5012154;28;20104;-48
2024/02/19 07:51:01;;;;;;;1.83;1.30;;;19.00;58.80;;;;;;5009880;28;20556;-50
2024/02/19 07:53:26;;;;;;;2.22;1.30;;;19.00;58.80;;;;;;5013120;28;20041;-52
2024/02/19 07:56:03;;;;;;;2.67;1.40;;;19.00;58.80;;;;;;5012709;28;20040;-53
2024/02/19 07:58:28;;;;;;;3.90;1.85;;;19.00;58.80;;;;;;5012346;28;20068;-50
2024/02/19 08:00:54;;;;;;;6.63;1.77;;;19.00;58.90;;;;;;5010738;28;20514;-48
2024/02/19 08:03:19;;;;;;;4.55;1.73;;;19.00;58.90;;;;;;5016558;28;20049;-47
2024/02/19 08:05:45;;;;;;;4.07;1.35;;;19.00;59.00;;;;;;5012044;28;20133;-50
2024/02/19 08:08:11;;;;;;;4.78;1.60;;;19.00;59.10;;;;;;5013983;28;20037;-51
2024/02/19 08:10:36;;;;;;;4.20;1.95;;;18.90;59.10;;;;;;5015870;28;20515;-49
2024/02/19 08:13:03;;;;;;;4.78;1.80;;;18.90;59.10;;;;;;5010575;28;20570;-56
2024/02/19 08:15:29;;;;;;;4.00;1.85;;;18.90;59.20;;;;;;5009945;28;20030;-51
2024/02/19 08:17:54;;;;;;;4.57;1.65;;;18.80;59.20;;;;;;5014804;28;20048;-50
2024/02/19 08:20:20;;;;;;;4.88;1.73;;;18.80;59.40;;;;;;5011203;28;20477;-46
2024/02/19 08:22:45;;;;;;;5.60;2.33;;;18.80;59.30;;;;;;5013944;28;20092;-50
2024/02/19 08:25:11;;;;;;;4.63;2.40;;;18.80;59.40;;;;;;5014797;28;20136;-49
2024/02/19 08:27:36;;;;;;;4.97;2.00;;;18.80;59.40;;;;;;5008208;28;20046;-47
2024/02/19 08:30:02;;;;;;;7.72;2.60;;;18.70;59.30;;;;;;5009022;28;20117;-48
2024/02/19 08:32:28;;;;;;;4.95;2.10;;;18.70;59.40;;;;;;5012642;28;20048;-46
2024/02/19 08:34:54;;;;;;;5.18;2.10;;;18.70;60.10;;;;;;5013170;28;20033;-47
2024/02/19 08:37:20;;;;;;;7.30;2.60;;;18.70;59.50;;;;;;5012316;28;20037;-52
2024/02/19 08:39:47;;;;;;;4.40;1.77;;;18.70;59.50;;;;;;5010970;28;20534;-53
2024/02/19 08:42:12;;;;;;;3.85;1.98;;;18.70;59.60;;;;;;5014112;28;20487;-46
2024/02/19 08:44:38;;;;;;;4.38;2.20;;;18.60;59.60;;;;;;5008749;28;20044;-47
2024/02/19 08:47:07;;;;;;;3.75;1.88;;;18.70;59.70;;;;;;5016875;28;20124;-53
2024/02/19 08:49:33;;;;;;;6.57;2.30;;;18.60;59.60;;;;;;5011687;28;21477;-52
2024/02/19 08:51:59;;;;;;;5.05;1.88;;;18.60;59.70;;;;;;5010609;28;20034;-49
2024/02/19 08:54:24;;;;;;;3.70;1.77;;;18.60;59.70;;;;;;5009003;28;20100;-49
2024/02/19 08:56:50;;;;;;;3.65;1.92;;;18.60;59.70;;;;;;5014466;28;20068;-47
2024/02/19 08:59:15;;;;;;;3.60;1.83;;;18.60;59.70;;;;;;5008816;28;20474;-48
2024/02/19 09:01:41;;;;;;;4.78;2.13;;;18.60;59.70;;;;;;5011596;28;20042;-45
2024/02/19 09:04:08;;;;;;;3.47;1.70;;;18.60;59.70;;;;;;5007727;28;20040;-53
2024/02/19 09:06:33;;;;;;;6.05;2.13;;;18.60;59.70;;;;;;5013566;28;20064;-50
2024/02/19 09:09:00;;;;;;;3.55;1.77;;;18.60;59.70;;;;;;5012021;28;20642;-45
2024/02/19 09:11:25;;;;;;;7.00;1.90;;;18.60;59.70;;;;;;5011750;28;20072;-46
2024/02/19 09:13:51;;;;;;;4.47;1.92;;;18.60;59.70;;;;;;5007686;28;20155;-49
2024/02/19 09:16:17;;;;;;;4.25;2.33;;;18.60;59.60;;;;;;5012785;28;20029;-47
2024/02/19 09:18:43;;;;;;;5.22;2.10;;;18.60;59.60;;;;;;5009789;28;20100;-53
2024/02/19 09:21:09;;;;;;;4.25;1.67;;;18.60;59.60;;;;;;5012258;28;20029;-55
2024/02/19 09:23:35;;;;;;;4.38;1.80;;;18.60;59.60;;;;;;5013853;28;20483;-50
2024/02/19 09:26:01;;;;;;;7.10;1.75;;;18.60;59.50;;;;;;5014305;28;20044;-50
2024/02/19 09:28:27;;;;;;;5.30;1.95;;;18.60;59.40;;;;;;4989358;28;20025;-52
2024/02/19 09:30:53;;;;;;;4.75;1.85;;;18.70;59.40;;;;;;5013716;28;20032;-49
2024/02/19 09:33:19;;;;;;;2.58;1.48;;;18.70;59.30;;;;;;5008454;28;20029;-52
2024/02/19 09:35:44;;;;;;;3.55;1.48;;;18.70;59.20;;;;;;5007077;28;20507;-50
2024/02/19 09:38:10;;;;;;;3.15;1.30;;;18.80;59.10;;;;;;5008167;28;20048;-56
2024/02/19 09:40:36;;;;;;;4.80;1.67;;;18.80;59.10;;;;;;5008489;28;20623;-48
2024/02/19 09:43:05;;;;;;;2.95;1.45;;;18.90;59.10;;;;;;5013225;28;20041;-50
2024/02/19 09:45:32;;;;;;;4.07;1.75;;;18.90;59.00;;;;;;5013340;28;20572;-50
2024/02/19 09:48:02;;;;;;;1.67;1.25;;;18.90;58.90;;;;;;5013708;28;20057;-45
2024/02/19 09:50:31;;;;;;;3.78;1.75;;;19.00;58.90;;;;;;5007847;28;20742;-52
2024/02/19 09:53:07;;;;;;;3.78;1.13;;;19.00;58.80;;;;;;5016760;28;20044;-47
2024/02/19 09:55:33;;;;;;;5.70;1.88;;;19.10;58.70;;;;;;5011422;28;20107;-52
2024/02/19 09:57:59;;;;;;;5.15;1.67;;;19.10;58.60;;;;;;5012149;28;20038;-45
2024/02/19 10:00:25;;;;;;;2.75;1.10;;;19.20;58.60;;;;;;5008583;28;20128;-55
2024/02/19 10:02:53;;;;;;;4.63;1.50;;;19.20;58.50;;;;;;5003312;28;20132;-52
2024/02/19 10:05:19;;;;;;;3.55;1.65;;;19.30;58.50;;;;;;5006560;28;20087;-50
2024/02/19 10:07:45;;;;;;;3.13;1.45;;;19.30;58.40;;;;;;5003652;28;20438;-47
2024/02/19 10:10:12;;;;;;;3.00;1.30;;;19.40;58.30;;;;;;5010398;28;20050;-47
2024/02/19 10:12:42;;;;;;;6.72;1.55;;;19.40;58.30;;;;;;5004351;28;20083;-46
2024/02/19 10:15:08;;;;;;;3.58;1.27;;;19.40;58.20;;;;;;5009112;28;20049;-46
2024/02/19 10:17:34;;;;;;;3.72;1.30;;;19.50;58.20;;;;;;5010234;28;20095;-46
2024/02/19 10:20:01;;;;;;;3.40;1.20;;;19.50;58.10;;;;;;5007873;28;20057;-48
2024/02/19 10:22:27;;;;;;;2.75;1.30;;;19.50;58.60;;;;;;5013154;28;20030;-48
2024/02/19 10:24:52;;;;;;;4.35;1.25;;;19.50;57.90;;;;;;5013218;28;20041;-48
2024/02/19 10:27:18;;;;;;;3.25;1.20;;;19.60;58.00;;;;;;5012963;28;20115;-48
2024/02/19 10:29:46;;;;;;;4.22;1.77;;;19.60;57.90;;;;;;5009857;28;20495;-59
2024/02/19 10:32:11;;;;;;;3.15;1.13;;;19.60;57.80;;;;;;5018188;28;20099;-48
2024/02/19 10:34:37;;;;;;;2.05;0.98;;;19.60;57.90;;;;;;5014818;28;20120;-48
2024/02/19 10:37:05;;;;;;;3.33;1.27;;;19.60;57.80;;;;;;5016006;28;20041;-48
2024/02/19 10:39:31;;;;;;;2.42;1.05;;;19.60;57.80;;;;;;5012467;28;20034;-48
2024/02/19 10:41:58;;;;;;;2.13;1.00;;;19.60;57.80;;;;;;5016222;28;20494;-49
2024/02/19 10:44:24;;;;;;;2.38;1.13;;;19.60;57.80;;;;;;5013278;28;20106;-51
2024/02/19 10:46:51;;;;;;;3.33;1.20;;;19.60;57.90;;;;;;5014313;28;20099;-48
2024/02/19 10:49:19;;;;;;;2.22;1.20;;;19.60;57.90;;;;;;5012624;28;20117;-47
2024/02/19 10:51:45;;;;;;;3.33;0.85;;;19.60;58.00;;;;;;5016090;28;20033;-49
2024/02/19 10:54:15;;;;;;;4.28;1.27;;;19.50;57.90;;;;;;5012271;28;20061;-47
2024/02/19 10:56:44;;;;;;;2.03;0.93;;;19.50;58.00;;;;;;5018770;28;20034;-48
2024/02/19 10:59:11;;;;;;;3.03;0.90;;;19.50;58.10;;;;;;5017823;28;20064;-50
2024/02/19 11:01:43;;;;;;;2.45;1.00;;;19.50;58.20;;;;;;5020408;28;20037;-47
2024/02/19 11:04:32;;;;;;;2.13;1.08;;;19.50;58.20;;;;;;5014029;28;20029;-49
2024/02/19 11:06:59;;;;;;;1.65;0.80;;;19.50;58.30;;;;;;5011960;28;20029;-50
2024/02/19 11:09:33;;;;;;;2.95;1.00;;;19.40;58.30;;;;;;5014327;28;20080;-46
2024/02/19 11:12:01;;;;;;;1.77;0.90;;;19.40;58.30;;;;;;5013912;28;20439;-47
2024/02/19 11:14:37;;;;;;;3.58;0.80;;;19.40;58.40;;;;;;5012052;28;20696;-49
2024/02/19 11:17:03;;;;;;;2.83;1.10;;;19.30;58.40;;;;;;5011135;28;20045;-47
2024/02/19 11:19:35;;;;;;;2.75;0.80;;;19.40;58.50;;;;;;5016088;28;20045;-48
2024/02/19 11:22:07;;;;;;;2.20;0.80;;;19.30;58.50;;;;;;5015582;28;20113;-47
2024/02/19 11:24:33;;;;;;;1.75;0.70;;;19.30;58.60;;;;;;5010298;28;20037;-48
2024/02/19 11:26:59;;;;;;;3.55;1.10;;;19.30;58.60;;;;;;5010359;28;20679;-47
2024/02/19 11:29:25;;;;;;;1.83;0.90;;;19.30;58.70;;;;;;5011907;28;20033;-46
2024/02/19 11:32:02;;;;;;;2.75;1.10;;;19.30;58.70;;;;;;5007595;28;20030;-48
2024/02/19 11:34:28;;;;;;;1.45;0.77;;;19.20;58.70;;;;;;5016503;28;20060;-47
2024/02/19 11:37:13;;;;;;;2.58;0.77;;;19.30;58.80;;;;;;5012694;28;20497;-46
2024/02/19 11:39:39;;;;;;;2.42;0.60;;;19.20;59.40;;;;;;5015977;28;20065;-49
2024/02/19 11:42:05;;;;;;;1.38;0.70;;;19.20;58.70;;;;;;5010182;28;20506;-47
2024/02/19 11:44:31;;;;;;;4.95;1.38;;;19.20;58.80;;;;;;5017852;28;20083;-50
2024/02/19 11:46:58;;;;;;;0.95;0.80;;;19.20;58.80;;;;;;5006454;28;20092;-48
2024/02/19 11:49:24;;;;;;;1.73;0.82;;;19.20;58.80;;;;;;5018230;28;20029;-48
2024/02/19 11:51:50;;;;;;;1.13;0.68;;;19.20;58.80;;;;;;5006386;28;20030;-47
2024/02/19 11:54:16;;;;;;;1.85;0.80;;;19.20;58.90;;;;;;5016165;28;20131;-46
2024/02/19 11:56:50;;;;;;;1.70;0.70;;;19.20;58.90;;;;;;5012112;28;20388;-47
2024/02/19 11:59:16;;;;;;;1.83;0.80;;;19.20;58.90;;;;;;5015839;28;20025;-48
2024/02/19 12:01:46;;;;;;;1.65;0.70;;;19.20;58.90;;;;;;5012556;28;20515;-46
2024/02/19 12:04:13;;;;;;;2.38;0.60;;;19.20;58.90;;;;;;5009121;28;20041;-47
2024/02/19 12:06:39;;;;;;;0.95;0.47;;;19.20;58.90;;;;;;5010459;28;20065;-48
2024/02/19 12:09:08;;;;;;;1.05;0.50;;;19.20;58.90;;;;;;5014587;28;20069;-47
2024/02/19 12:11:34;;;;;;;1.02;0.55;;;19.10;58.80;;;;;;5004219;28;20117;-50
2024/02/19 12:13:59;;;;;;;1.73;0.57;;;19.20;58.90;;;;;;5011608;28;20047;-48
2024/02/19 12:16:27;;;;;;;0.93;0.60;;;19.20;58.90;;;;;;5010466;28;20502;-45
2024/02/19 12:18:54;;;;;;;1.88;0.75;;;19.20;58.90;;;;;;5010744;28;20022;-48
2024/02/19 12:21:20;;;;;;;1.55;0.60;;;19.10;58.90;;;;;;5012885;28;20037;-46
2024/02/19 12:23:48;;;;;;;0.75;0.40;;;19.10;58.90;;;;;;5012565;28;20033;-48
2024/02/19 12:26:14;;;;;;;2.53;0.45;;;19.10;58.90;;;;;;5012924;28;20045;-48
2024/02/19 12:28:39;;;;;;;1.05;0.40;;;19.10;58.80;;;;;;5007653;28;20041;-47
2024/02/19 12:31:05;;;;;;;1.75;0.30;;;19.20;58.90;;;;;;5010330;28;20765;-49
2024/02/19 12:33:30;;;;;;;0.93;0.40;;;19.20;58.90;;;;;;4996535;28;20072;-47
2024/02/19 12:35:56;;;;;;;1.13;0.60;;;19.20;58.90;;;;;;4975664;28;20079;-50
2024/02/19 12:38:21;;;;;;;0.98;0.52;;;19.20;59.50;;;;;;5016014;28;20098;-49
2024/02/19 12:40:47;;;;;;;0.95;0.47;;;19.10;58.90;;;;;;5015178;28;20124;-53
2024/02/19 12:43:12;;;;;;;1.30;0.47;;;19.10;58.90;;;;;;4978449;28;20034;-51